sensor_id;sensor_type;location;lat;lon;timestamp;P1;durP1;ratioP1;P2;durP2;ratioP2
60203;SDS011;46068;52.132;4.618;2023-08-12T00:00:24;7.93;;;3.38;;
60203;SDS011;46068;52.132;4.618;2023-08-12T00:02:50;7.75;;;3.35;;
60203;SDS011;46068;52.132;4.618;2023-08-12T00:05:17;9.65;;;3.50;;
60203;SDS011;46068;52.132;4.618;2023-08-12T00:07:43;8.52;;;3.35;;
60203;SDS011;46068;52.132;4.618;2023-08-12T00:10:10;10.80;;;4.25;;
60203;SDS011;46068;52.132;4.618;2023-08-12T00:12:36;8.57;;;3.58;;
60203;SDS011;46068;52.132;4.618;2023-08-12T00:15:04;7.78;;;3.33;;
60203;SDS011;46068;52.132;4.618;2023-08-12T00:17:33;8.93;;;3.30;;
60203;SDS011;46068;52.132;4.618;2023-08-12T00:19:59;7.55;;;3.15;;
60203;SDS011;46068;52.132;4.618;2023-08-12T00:22:26;9.65;;;3.65;;
60203;SDS011;46068;52.132;4.618;2023-08-12T00:24:52;7.70;;;3.30;;
60203;SDS011;46068;52.132;4.618;2023-08-12T00:27:18;8.13;;;3.30;;
60203;SDS011;46068;52.132;4.618;2023-08-12T00:29:44;12.55;;;3.75;;
60203;SDS011;46068;52.132;4.618;2023-08-12T00:32:12;9.05;;;3.25;;
60203;SDS011;46068;52.132;4.618;2023-08-12T00:34:38;8.80;;;3.75;;
60203;SDS011;46068;52.132;4.618;2023-08-12T00:37:05;10.68;;;4.20;;
60203;SDS011;46068;52.132;4.618;2023-08-12T00:39:31;9.75;;;3.70;;
60203;SDS011;46068;52.132;4.618;2023-08-12T00:41:57;8.23;;;3.90;;
60203;SDS011;46068;52.132;4.618;2023-08-12T00:44:24;11.02;;;3.72;;
60203;SDS011;46068;52.132;4.618;2023-08-12T00:46:50;8.70;;;4.15;;
60203;SDS011;46068;52.132;4.618;2023-08-12T00:49:18;13.10;;;3.88;;
60203;SDS011;46068;52.132;4.618;2023-08-12T00:51:44;8.63;;;4.00;;
60203;SDS011;46068;52.132;4.618;2023-08-12T00:54:12;6.65;;;3.35;;
60203;SDS011;46068;52.132;4.618;2023-08-12T00:56:39;9.70;;;4.10;;
60203;SDS011;46068;52.132;4.618;2023-08-12T00:59:07;9.85;;;4.35;;
60203;SDS011;46068;52.132;4.618;2023-08-12T01:01:33;8.30;;;3.45;;
60203;SDS011;46068;52.132;4.618;2023-08-12T01:04:00;10.85;;;4.07;;
60203;SDS011;46068;52.132;4.618;2023-08-12T01:06:28;9.77;;;4.43;;
60203;SDS011;46068;52.132;4.618;2023-08-12T01:08:54;14.05;;;4.25;;
60203;SDS011;46068;52.132;4.618;2023-08-12T01:11:21;13.15;;;4.60;;
60203;SDS011;46068;52.132;4.618;2023-08-12T01:13:52;9.60;;;4.20;;
60203;SDS011;46068;52.132;4.618;2023-08-12T01:16:22;13.82;;;4.47;;
60203;SDS011;46068;52.132;4.618;2023-08-12T01:18:48;9.63;;;4.50;;
60203;SDS011;46068;52.132;4.618;2023-08-12T01:21:16;11.65;;;4.80;;
60203;SDS011;46068;52.132;4.618;2023-08-12T01:23:44;9.77;;;3.95;;
60203;SDS011;46068;52.132;4.618;2023-08-12T01:26:10;10.57;;;5.15;;
60203;SDS011;46068;52.132;4.618;2023-08-12T01:28:36;12.55;;;4.70;;
60203;SDS011;46068;52.132;4.618;2023-08-12T01:31:04;10.70;;;4.25;;
60203;SDS011;46068;52.132;4.618;2023-08-12T01:33:34;7.03;;;3.95;;
60203;SDS011;46068;52.132;4.618;2023-08-12T01:36:03;12.05;;;4.78;;
60203;SDS011;46068;52.132;4.618;2023-08-12T01:38:34;11.80;;;4.53;;
60203;SDS011;46068;52.132;4.618;2023-08-12T01:41:02;8.68;;;4.88;;
60203;SDS011;46068;52.132;4.618;2023-08-12T01:43:29;12.95;;;4.50;;
60203;SDS011;46068;52.132;4.618;2023-08-12T01:45:56;8.98;;;4.78;;
60203;SDS011;46068;52.132;4.618;2023-08-12T01:48:22;11.68;;;5.50;;
60203;SDS011;46068;52.132;4.618;2023-08-12T01:50:48;12.10;;;4.93;;
60203;SDS011;46068;52.132;4.618;2023-08-12T01:53:15;13.52;;;5.38;;
60203;SDS011;46068;52.132;4.618;2023-08-12T01:55:42;11.27;;;5.35;;
60203;SDS011;46068;52.132;4.618;2023-08-12T01:58:10;11.40;;;4.80;;
60203;SDS011;46068;52.132;4.618;2023-08-12T02:00:36;9.38;;;5.55;;
60203;SDS011;46068;52.132;4.618;2023-08-12T02:03:03;9.90;;;4.72;;
60203;SDS011;46068;52.132;4.618;2023-08-12T02:05:29;12.80;;;5.80;;
60203;SDS011;46068;52.132;4.618;2023-08-12T02:07:56;10.48;;;5.63;;
60203;SDS011;46068;52.132;4.618;2023-08-12T02:10:22;13.52;;;6.07;;
60203;SDS011;46068;52.132;4.618;2023-08-12T02:12:48;12.88;;;5.75;;
60203;SDS011;46068;52.132;4.618;2023-08-12T02:15:16;14.95;;;5.85;;
60203;SDS011;46068;52.132;4.618;2023-08-12T02:17:42;13.60;;;6.00;;
60203;SDS011;46068;52.132;4.618;2023-08-12T02:20:09;12.77;;;6.25;;
60203;SDS011;46068;52.132;4.618;2023-08-12T02:22:35;11.40;;;5.82;;
60203;SDS011;46068;52.132;4.618;2023-08-12T02:25:01;14.20;;;6.60;;
60203;SDS011;46068;52.132;4.618;2023-08-12T02:27:28;13.85;;;6.85;;
60203;SDS011;46068;52.132;4.618;2023-08-12T02:29:54;19.60;;;8.18;;
60203;SDS011;46068;52.132;4.618;2023-08-12T02:32:22;15.68;;;7.68;;
60203;SDS011;46068;52.132;4.618;2023-08-12T02:34:48;20.90;;;8.55;;
60203;SDS011;46068;52.132;4.618;2023-08-12T02:37:14;19.60;;;8.68;;
60203;SDS011;46068;52.132;4.618;2023-08-12T02:39:41;17.38;;;8.32;;
60203;SDS011;46068;52.132;4.618;2023-08-12T02:42:07;19.77;;;9.13;;
60203;SDS011;46068;52.132;4.618;2023-08-12T02:44:33;17.23;;;9.15;;
60203;SDS011;46068;52.132;4.618;2023-08-12T02:46:59;17.77;;;9.50;;
60203;SDS011;46068;52.132;4.618;2023-08-12T02:49:27;23.88;;;10.68;;
60203;SDS011;46068;52.132;4.618;2023-08-12T02:51:53;26.90;;;10.38;;
60203;SDS011;46068;52.132;4.618;2023-08-12T02:54:20;20.70;;;9.77;;
60203;SDS011;46068;52.132;4.618;2023-08-12T02:56:46;19.83;;;10.85;;
60203;SDS011;46068;52.132;4.618;2023-08-12T02:59:12;22.92;;;10.98;;
60203;SDS011;46068;52.132;4.618;2023-08-12T03:01:40;17.58;;;9.88;;
60203;SDS011;46068;52.132;4.618;2023-08-12T03:04:06;24.38;;;11.02;;
60203;SDS011;46068;52.132;4.618;2023-08-12T03:06:34;20.27;;;10.50;;
60203;SDS011;46068;52.132;4.618;2023-08-12T03:09:00;17.17;;;10.52;;
60203;SDS011;46068;52.132;4.618;2023-08-12T03:11:27;18.58;;;10.77;;
60203;SDS011;46068;52.132;4.618;2023-08-12T03:13:53;20.58;;;9.95;;
60203;SDS011;46068;52.132;4.618;2023-08-12T03:16:19;18.83;;;10.65;;
60203;SDS011;46068;52.132;4.618;2023-08-12T03:18:46;19.95;;;11.23;;
60203;SDS011;46068;52.132;4.618;2023-08-12T03:21:12;19.60;;;11.52;;
60203;SDS011;46068;52.132;4.618;2023-08-12T03:23:40;20.20;;;10.18;;
60203;SDS011;46068;52.132;4.618;2023-08-12T03:26:06;19.98;;;11.02;;
60203;SDS011;46068;52.132;4.618;2023-08-12T03:28:33;19.77;;;10.70;;
60203;SDS011;46068;52.132;4.618;2023-08-12T03:30:59;20.60;;;11.77;;
60203;SDS011;46068;52.132;4.618;2023-08-12T03:33:25;19.77;;;11.32;;
60203;SDS011;46068;52.132;4.618;2023-08-12T03:35:52;22.58;;;10.98;;
60203;SDS011;46068;52.132;4.618;2023-08-12T03:38:18;25.50;;;11.50;;
60203;SDS011;46068;52.132;4.618;2023-08-12T03:40:46;22.90;;;10.93;;
60203;SDS011;46068;52.132;4.618;2023-08-12T03:43:12;17.83;;;10.52;;
60203;SDS011;46068;52.132;4.618;2023-08-12T03:45:39;20.60;;;11.25;;
60203;SDS011;46068;52.132;4.618;2023-08-12T03:48:06;20.50;;;10.75;;
60203;SDS011;46068;52.132;4.618;2023-08-12T03:50:33;23.27;;;12.35;;
60203;SDS011;46068;52.132;4.618;2023-08-12T03:52:59;23.40;;;10.88;;
60203;SDS011;46068;52.132;4.618;2023-08-12T03:55:25;18.33;;;10.88;;
60203;SDS011;46068;52.132;4.618;2023-08-12T03:57:53;19.17;;;11.30;;
60203;SDS011;46068;52.132;4.618;2023-08-12T04:00:20;22.88;;;11.48;;
60203;SDS011;46068;52.132;4.618;2023-08-12T04:02:46;21.33;;;11.07;;
60203;SDS011;46068;52.132;4.618;2023-08-12T04:05:12;19.95;;;10.85;;
60203;SDS011;46068;52.132;4.618;2023-08-12T04:07:38;18.98;;;10.25;;
60203;SDS011;46068;52.132;4.618;2023-08-12T04:10:05;18.92;;;11.18;;
60203;SDS011;46068;52.132;4.618;2023-08-12T04:12:32;23.60;;;11.90;;
60203;SDS011;46068;52.132;4.618;2023-08-12T04:14:59;23.55;;;11.63;;
60203;SDS011;46068;52.132;4.618;2023-08-12T04:17:27;20.75;;;12.20;;
60203;SDS011;46068;52.132;4.618;2023-08-12T04:19:53;22.45;;;11.38;;
60203;SDS011;46068;52.132;4.618;2023-08-12T04:22:20;25.17;;;10.73;;
60203;SDS011;46068;52.132;4.618;2023-08-12T04:24:46;21.80;;;10.98;;
60203;SDS011;46068;52.132;4.618;2023-08-12T04:27:12;18.13;;;9.88;;
60203;SDS011;46068;52.132;4.618;2023-08-12T04:29:39;19.52;;;10.30;;
60203;SDS011;46068;52.132;4.618;2023-08-12T04:32:06;20.70;;;11.85;;
60203;SDS011;46068;52.132;4.618;2023-08-12T04:34:33;21.05;;;11.13;;
60203;SDS011;46068;52.132;4.618;2023-08-12T04:36:59;22.10;;;11.90;;
60203;SDS011;46068;52.132;4.618;2023-08-12T04:39:25;18.58;;;10.73;;
60203;SDS011;46068;52.132;4.618;2023-08-12T04:41:52;19.63;;;11.00;;
60203;SDS011;46068;52.132;4.618;2023-08-12T04:44:18;21.20;;;10.82;;
60203;SDS011;46068;52.132;4.618;2023-08-12T04:46:44;20.02;;;10.48;;
60203;SDS011;46068;52.132;4.618;2023-08-12T04:49:13;21.40;;;11.05;;
60203;SDS011;46068;52.132;4.618;2023-08-12T04:51:39;22.88;;;10.65;;
60203;SDS011;46068;52.132;4.618;2023-08-12T04:54:05;18.05;;;10.48;;
60203;SDS011;46068;52.132;4.618;2023-08-12T04:56:32;20.05;;;10.55;;
60203;SDS011;46068;52.132;4.618;2023-08-12T04:58:58;19.52;;;10.52;;
60203;SDS011;46068;52.132;4.618;2023-08-12T05:01:25;23.23;;;11.30;;
60203;SDS011;46068;52.132;4.618;2023-08-12T05:03:51;20.35;;;10.77;;
60203;SDS011;46068;52.132;4.618;2023-08-12T05:06:18;17.67;;;10.43;;
60203;SDS011;46068;52.132;4.618;2023-08-12T05:08:45;19.83;;;10.38;;
60203;SDS011;46068;52.132;4.618;2023-08-12T05:11:11;19.33;;;10.68;;
60203;SDS011;46068;52.132;4.618;2023-08-12T05:13:37;22.83;;;11.35;;
60203;SDS011;46068;52.132;4.618;2023-08-12T05:16:04;20.35;;;12.10;;
60203;SDS011;46068;52.132;4.618;2023-08-12T05:18:30;22.00;;;11.35;;
60203;SDS011;46068;52.132;4.618;2023-08-12T05:20:56;22.08;;;10.20;;
60203;SDS011;46068;52.132;4.618;2023-08-12T05:23:25;18.02;;;10.80;;
60203;SDS011;46068;52.132;4.618;2023-08-12T05:25:51;19.77;;;11.30;;
60203;SDS011;46068;52.132;4.618;2023-08-12T05:28:17;19.55;;;11.48;;
60203;SDS011;46068;52.132;4.618;2023-08-12T05:30:44;22.13;;;11.77;;
60203;SDS011;46068;52.132;4.618;2023-08-12T05:33:11;20.90;;;11.23;;
60203;SDS011;46068;52.132;4.618;2023-08-12T05:35:37;20.90;;;10.63;;
60203;SDS011;46068;52.132;4.618;2023-08-12T05:38:03;24.90;;;11.32;;
60203;SDS011;46068;52.132;4.618;2023-08-12T05:40:31;20.17;;;11.07;;
60203;SDS011;46068;52.132;4.618;2023-08-12T05:42:57;18.92;;;12.05;;
60203;SDS011;46068;52.132;4.618;2023-08-12T05:45:24;23.63;;;12.27;;
60203;SDS011;46068;52.132;4.618;2023-08-12T05:47:50;18.00;;;11.65;;
60203;SDS011;46068;52.132;4.618;2023-08-12T05:50:16;21.65;;;12.00;;
60203;SDS011;46068;52.132;4.618;2023-08-12T05:52:43;21.42;;;11.57;;
60203;SDS011;46068;52.132;4.618;2023-08-12T05:55:09;20.52;;;11.07;;
60203;SDS011;46068;52.132;4.618;2023-08-12T05:57:37;19.30;;;11.35;;
60203;SDS011;46068;52.132;4.618;2023-08-12T06:00:04;19.27;;;11.80;;
60203;SDS011;46068;52.132;4.618;2023-08-12T06:02:30;17.92;;;11.05;;
60203;SDS011;46068;52.132;4.618;2023-08-12T06:04:57;18.08;;;11.32;;
60203;SDS011;46068;52.132;4.618;2023-08-12T06:07:23;18.25;;;11.63;;
60203;SDS011;46068;52.132;4.618;2023-08-12T06:09:49;18.35;;;12.38;;
60203;SDS011;46068;52.132;4.618;2023-08-12T06:12:16;18.02;;;10.93;;
60203;SDS011;46068;52.132;4.618;2023-08-12T06:14:43;17.50;;;11.18;;
60203;SDS011;46068;52.132;4.618;2023-08-12T06:17:10;17.35;;;11.00;;
60203;SDS011;46068;52.132;4.618;2023-08-12T06:19:36;17.98;;;11.63;;
60203;SDS011;46068;52.132;4.618;2023-08-12T06:22:02;15.10;;;10.35;;
60203;SDS011;46068;52.132;4.618;2023-08-12T06:24:29;21.00;;;11.15;;
60203;SDS011;46068;52.132;4.618;2023-08-12T06:26:55;15.35;;;9.57;;
60203;SDS011;46068;52.132;4.618;2023-08-12T06:29:21;13.68;;;9.40;;
60203;SDS011;46068;52.132;4.618;2023-08-12T06:31:49;14.38;;;9.60;;
60203;SDS011;46068;52.132;4.618;2023-08-12T06:34:16;13.57;;;9.23;;
60203;SDS011;46068;52.132;4.618;2023-08-12T06:36:42;13.15;;;9.10;;
60203;SDS011;46068;52.132;4.618;2023-08-12T06:39:08;12.73;;;8.88;;
60203;SDS011;46068;52.132;4.618;2023-08-12T06:41:35;10.82;;;8.15;;
60203;SDS011;46068;52.132;4.618;2023-08-12T06:44:01;11.25;;;8.48;;
60203;SDS011;46068;52.132;4.618;2023-08-12T06:46:29;12.68;;;8.38;;
60203;SDS011;46068;52.132;4.618;2023-08-12T06:48:57;12.60;;;7.90;;
60203;SDS011;46068;52.132;4.618;2023-08-12T06:51:23;11.68;;;7.90;;
60203;SDS011;46068;52.132;4.618;2023-08-12T06:53:50;10.65;;;7.40;;
60203;SDS011;46068;52.132;4.618;2023-08-12T06:56:16;11.13;;;7.32;;
60203;SDS011;46068;52.132;4.618;2023-08-12T06:58:42;11.90;;;7.38;;
60203;SDS011;46068;52.132;4.618;2023-08-12T07:01:09;8.73;;;6.82;;
60203;SDS011;46068;52.132;4.618;2023-08-12T07:03:35;7.85;;;6.30;;
60203;SDS011;46068;52.132;4.618;2023-08-12T07:06:03;8.48;;;6.50;;
60203;SDS011;46068;52.132;4.618;2023-08-12T07:08:29;9.50;;;6.72;;
60203;SDS011;46068;52.132;4.618;2023-08-12T07:10:56;9.10;;;6.75;;
60203;SDS011;46068;52.132;4.618;2023-08-12T07:13:22;9.18;;;5.95;;
60203;SDS011;46068;52.132;4.618;2023-08-12T07:15:49;8.45;;;5.90;;
60203;SDS011;46068;52.132;4.618;2023-08-12T07:18:15;7.90;;;5.88;;
60203;SDS011;46068;52.132;4.618;2023-08-12T07:20:41;9.30;;;4.63;;
60203;SDS011;46068;52.132;4.618;2023-08-12T07:23:09;9.23;;;3.78;;
60203;SDS011;46068;52.132;4.618;2023-08-12T07:25:35;9.50;;;4.05;;
60203;SDS011;46068;52.132;4.618;2023-08-12T07:28:02;7.85;;;3.17;;
60203;SDS011;46068;52.132;4.618;2023-08-12T07:30:28;6.22;;;2.47;;
60203;SDS011;46068;52.132;4.618;2023-08-12T07:32:54;5.68;;;2.22;;
60203;SDS011;46068;52.132;4.618;2023-08-12T07:35:21;8.80;;;2.70;;
60203;SDS011;46068;52.132;4.618;2023-08-12T07:37:47;6.68;;;2.20;;
60203;SDS011;46068;52.132;4.618;2023-08-12T07:40:15;6.82;;;2.30;;
60203;SDS011;46068;52.132;4.618;2023-08-12T07:42:41;4.60;;;1.95;;
60203;SDS011;46068;52.132;4.618;2023-08-12T07:45:08;7.93;;;1.98;;
60203;SDS011;46068;52.132;4.618;2023-08-12T07:47:34;3.80;;;1.30;;
60203;SDS011;46068;52.132;4.618;2023-08-12T07:50:01;6.00;;;1.70;;
60203;SDS011;46068;52.132;4.618;2023-08-12T07:52:27;7.35;;;1.75;;
60203;SDS011;46068;52.132;4.618;2023-08-12T07:54:53;5.55;;;1.38;;
60203;SDS011;46068;52.132;4.618;2023-08-12T07:57:21;4.93;;;1.55;;
60203;SDS011;46068;52.132;4.618;2023-08-12T07:59:49;5.00;;;1.60;;
60203;SDS011;46068;52.132;4.618;2023-08-12T08:02:15;7.20;;;1.80;;
60203;SDS011;46068;52.132;4.618;2023-08-12T08:04:41;9.20;;;2.03;;
60203;SDS011;46068;52.132;4.618;2023-08-12T08:07:08;8.02;;;1.92;;
60203;SDS011;46068;52.132;4.618;2023-08-12T08:09:34;5.18;;;1.85;;
60203;SDS011;46068;52.132;4.618;2023-08-12T08:12:01;6.22;;;1.60;;
60203;SDS011;46068;52.132;4.618;2023-08-12T08:14:28;5.88;;;2.03;;
60203;SDS011;46068;52.132;4.618;2023-08-12T08:16:55;6.00;;;1.60;;
60203;SDS011;46068;52.132;4.618;2023-08-12T08:19:21;4.40;;;1.52;;
60203;SDS011;46068;52.132;4.618;2023-08-12T08:21:47;7.85;;;1.42;;
60203;SDS011;46068;52.132;4.618;2023-08-12T08:24:14;6.65;;;1.50;;
60203;SDS011;46068;52.132;4.618;2023-08-12T08:26:40;4.93;;;1.50;;
60203;SDS011;46068;52.132;4.618;2023-08-12T08:29:07;4.07;;;1.38;;
60203;SDS011;46068;52.132;4.618;2023-08-12T08:31:35;4.43;;;1.27;;
60203;SDS011;46068;52.132;4.618;2023-08-12T08:34:01;5.85;;;1.27;;
60203;SDS011;46068;52.132;4.618;2023-08-12T08:36:27;3.17;;;1.10;;
60203;SDS011;46068;52.132;4.618;2023-08-12T08:38:54;3.90;;;1.17;;
60203;SDS011;46068;52.132;4.618;2023-08-12T08:41:20;6.63;;;1.20;;
60203;SDS011;46068;52.132;4.618;2023-08-12T08:43:47;7.03;;;1.60;;
60203;SDS011;46068;52.132;4.618;2023-08-12T08:46:14;3.67;;;1.35;;
60203;SDS011;46068;52.132;4.618;2023-08-12T08:48:42;4.50;;;1.23;;
60203;SDS011;46068;52.132;4.618;2023-08-12T08:51:09;5.28;;;1.38;;
60203;SDS011;46068;52.132;4.618;2023-08-12T08:53:35;5.47;;;1.50;;
60203;SDS011;46068;52.132;4.618;2023-08-12T08:56:03;7.60;;;1.30;;
60203;SDS011;46068;52.132;4.618;2023-08-12T08:58:30;6.43;;;1.33;;
60203;SDS011;46068;52.132;4.618;2023-08-12T09:00:57;6.88;;;1.30;;
60203;SDS011;46068;52.132;4.618;2023-08-12T09:03:23;5.57;;;1.17;;
60203;SDS011;46068;52.132;4.618;2023-08-12T09:05:51;4.20;;;1.33;;
60203;SDS011;46068;52.132;4.618;2023-08-12T09:08:19;5.85;;;1.20;;
60203;SDS011;46068;52.132;4.618;2023-08-12T09:10:45;6.38;;;1.30;;
60203;SDS011;46068;52.132;4.618;2023-08-12T09:13:12;7.00;;;1.35;;
60203;SDS011;46068;52.132;4.618;2023-08-12T09:15:40;7.40;;;1.60;;
60203;SDS011;46068;52.132;4.618;2023-08-12T09:18:06;8.73;;;1.80;;
60203;SDS011;46068;52.132;4.618;2023-08-12T09:20:32;6.45;;;1.50;;
60203;SDS011;46068;52.132;4.618;2023-08-12T09:23:01;5.15;;;1.38;;
60203;SDS011;46068;52.132;4.618;2023-08-12T09:25:28;4.82;;;1.40;;
60203;SDS011;46068;52.132;4.618;2023-08-12T09:27:55;5.00;;;1.30;;
60203;SDS011;46068;52.132;4.618;2023-08-12T09:30:21;5.07;;;1.20;;
60203;SDS011;46068;52.132;4.618;2023-08-12T09:32:54;4.15;;;1.17;;
60203;SDS011;46068;52.132;4.618;2023-08-12T09:35:24;5.95;;;1.58;;
60203;SDS011;46068;52.132;4.618;2023-08-12T09:37:57;5.47;;;1.10;;
60203;SDS011;46068;52.132;4.618;2023-08-12T09:40:24;4.13;;;1.23;;
60203;SDS011;46068;52.132;4.618;2023-08-12T09:42:51;4.72;;;1.50;;
60203;SDS011;46068;52.132;4.618;2023-08-12T09:45:17;4.93;;;1.25;;
60203;SDS011;46068;52.132;4.618;2023-08-12T09:47:45;3.88;;;1.30;;
60203;SDS011;46068;52.132;4.618;2023-08-12T09:50:12;5.13;;;1.00;;
60203;SDS011;46068;52.132;4.618;2023-08-12T09:52:38;5.03;;;1.38;;
60203;SDS011;46068;52.132;4.618;2023-08-12T09:55:05;3.83;;;1.30;;
60203;SDS011;46068;52.132;4.618;2023-08-12T09:57:34;5.75;;;1.27;;
60203;SDS011;46068;52.132;4.618;2023-08-12T10:00:02;4.97;;;1.05;;
60203;SDS011;46068;52.132;4.618;2023-08-12T10:02:36;6.40;;;1.30;;
60203;SDS011;46068;52.132;4.618;2023-08-12T10:05:03;8.13;;;1.48;;
60203;SDS011;46068;52.132;4.618;2023-08-12T10:07:30;5.63;;;1.50;;
60203;SDS011;46068;52.132;4.618;2023-08-12T10:09:57;7.13;;;1.63;;
60203;SDS011;46068;52.132;4.618;2023-08-12T10:12:23;8.07;;;1.50;;
60203;SDS011;46068;52.132;4.618;2023-08-12T10:14:51;4.85;;;1.50;;
60203;SDS011;46068;52.132;4.618;2023-08-12T10:17:18;10.30;;;1.48;;
60203;SDS011;46068;52.132;4.618;2023-08-12T10:19:45;6.35;;;1.50;;
60203;SDS011;46068;52.132;4.618;2023-08-12T10:22:12;5.72;;;1.27;;
60203;SDS011;46068;52.132;4.618;2023-08-12T10:24:39;6.35;;;1.45;;
60203;SDS011;46068;52.132;4.618;2023-08-12T10:27:06;8.00;;;1.40;;
60203;SDS011;46068;52.132;4.618;2023-08-12T10:29:32;7.15;;;1.60;;
60203;SDS011;46068;52.132;4.618;2023-08-12T10:32:00;7.40;;;1.75;;
60203;SDS011;46068;52.132;4.618;2023-08-12T10:34:27;6.03;;;1.70;;
60203;SDS011;46068;52.132;4.618;2023-08-12T10:36:53;8.35;;;1.70;;
60203;SDS011;46068;52.132;4.618;2023-08-12T10:39:21;7.40;;;1.58;;
60203;SDS011;46068;52.132;4.618;2023-08-12T10:41:51;6.97;;;1.70;;
60203;SDS011;46068;52.132;4.618;2023-08-12T10:44:19;8.93;;;1.58;;
60203;SDS011;46068;52.132;4.618;2023-08-12T10:46:49;8.85;;;1.65;;
60203;SDS011;46068;52.132;4.618;2023-08-12T10:49:18;10.82;;;1.73;;
60203;SDS011;46068;52.132;4.618;2023-08-12T10:51:45;8.82;;;1.80;;
60203;SDS011;46068;52.132;4.618;2023-08-12T10:54:15;10.73;;;1.67;;
60203;SDS011;46068;52.132;4.618;2023-08-12T11:02:27;9.65;;;1.73;;
60203;SDS011;46068;52.132;4.618;2023-08-12T11:04:55;10.35;;;2.20;;
60203;SDS011;46068;52.132;4.618;2023-08-12T11:07:32;8.13;;;1.80;;
60203;SDS011;46068;52.132;4.618;2023-08-12T11:10:09;8.50;;;1.77;;
60203;SDS011;46068;52.132;4.618;2023-08-12T11:12:36;10.02;;;2.40;;
60203;SDS011;46068;52.132;4.618;2023-08-12T11:15:03;7.72;;;1.90;;
60203;SDS011;46068;52.132;4.618;2023-08-12T11:17:32;8.27;;;1.90;;
60203;SDS011;46068;52.132;4.618;2023-08-12T11:20:00;9.05;;;2.00;;
60203;SDS011;46068;52.132;4.618;2023-08-12T11:22:29;6.88;;;1.83;;
60203;SDS011;46068;52.132;4.618;2023-08-12T11:24:55;9.90;;;2.22;;
60203;SDS011;46068;52.132;4.618;2023-08-12T11:27:22;9.63;;;1.75;;
60203;SDS011;46068;52.132;4.618;2023-08-12T11:29:48;8.05;;;1.90;;
60203;SDS011;46068;52.132;4.618;2023-08-12T11:32:15;7.80;;;1.70;;
60203;SDS011;46068;52.132;4.618;2023-08-12T11:34:41;8.00;;;2.17;;
60203;SDS011;46068;52.132;4.618;2023-08-12T11:37:09;4.65;;;1.40;;
60203;SDS011;46068;52.132;4.618;2023-08-12T11:39:35;12.40;;;2.08;;
60203;SDS011;46068;52.132;4.618;2023-08-12T11:42:03;11.63;;;1.85;;
60203;SDS011;46068;52.132;4.618;2023-08-12T11:44:29;9.85;;;1.95;;
60203;SDS011;46068;52.132;4.618;2023-08-12T11:46:55;11.18;;;2.13;;
60203;SDS011;46068;52.132;4.618;2023-08-12T11:49:22;10.35;;;2.17;;
60203;SDS011;46068;52.132;4.618;2023-08-12T11:51:48;6.68;;;1.60;;
60203;SDS011;46068;52.132;4.618;2023-08-12T11:54:16;7.13;;;2.15;;
60203;SDS011;46068;52.132;4.618;2023-08-12T11:56:42;7.13;;;1.85;;
60203;SDS011;46068;52.132;4.618;2023-08-12T11:59:09;6.38;;;1.85;;
60203;SDS011;46068;52.132;4.618;2023-08-12T12:01:36;7.32;;;2.00;;
60203;SDS011;46068;52.132;4.618;2023-08-12T12:04:02;6.72;;;1.55;;
60203;SDS011;46068;52.132;4.618;2023-08-12T12:06:30;13.25;;;2.17;;
60203;SDS011;46068;52.132;4.618;2023-08-12T12:08:56;10.15;;;2.03;;
60203;SDS011;46068;52.132;4.618;2023-08-12T12:11:27;7.32;;;1.90;;
60203;SDS011;46068;52.132;4.618;2023-08-12T12:13:53;6.32;;;1.80;;
60203;SDS011;46068;52.132;4.618;2023-08-12T12:16:19;10.38;;;2.08;;
60203;SDS011;46068;52.132;4.618;2023-08-12T12:18:45;9.55;;;2.10;;
60203;SDS011;46068;52.132;4.618;2023-08-12T12:21:12;9.35;;;2.03;;
60203;SDS011;46068;52.132;4.618;2023-08-12T12:23:46;9.98;;;1.90;;
60203;SDS011;46068;52.132;4.618;2023-08-12T12:26:12;6.60;;;1.95;;
60203;SDS011;46068;52.132;4.618;2023-08-12T12:28:40;9.80;;;2.10;;
60203;SDS011;46068;52.132;4.618;2023-08-12T12:31:06;9.82;;;2.17;;
60203;SDS011;46068;52.132;4.618;2023-08-12T12:33:33;9.65;;;2.20;;
60203;SDS011;46068;52.132;4.618;2023-08-12T12:35:59;6.47;;;1.80;;
60203;SDS011;46068;52.132;4.618;2023-08-12T12:38:25;8.93;;;1.85;;
60203;SDS011;46068;52.132;4.618;2023-08-12T12:40:51;7.43;;;2.08;;
60203;SDS011;46068;52.132;4.618;2023-08-12T12:43:18;9.02;;;2.00;;
60203;SDS011;46068;52.132;4.618;2023-08-12T12:45:45;7.05;;;1.77;;
60203;SDS011;46068;52.132;4.618;2023-08-12T12:48:12;10.38;;;1.77;;
60203;SDS011;46068;52.132;4.618;2023-08-12T12:50:38;6.22;;;1.85;;
60203;SDS011;46068;52.132;4.618;2023-08-12T12:53:04;9.90;;;1.80;;
60203;SDS011;46068;52.132;4.618;2023-08-12T12:55:30;8.38;;;2.00;;
60203;SDS011;46068;52.132;4.618;2023-08-12T12:57:57;8.35;;;1.63;;
60203;SDS011;46068;52.132;4.618;2023-08-12T13:00:23;10.85;;;2.20;;
60203;SDS011;46068;52.132;4.618;2023-08-12T13:02:50;10.65;;;2.38;;
60203;SDS011;46068;52.132;4.618;2023-08-12T13:05:17;9.90;;;2.28;;
60203;SDS011;46068;52.132;4.618;2023-08-12T13:07:43;12.13;;;2.22;;
60203;SDS011;46068;52.132;4.618;2023-08-12T13:10:09;8.48;;;2.30;;
60203;SDS011;46068;52.132;4.618;2023-08-12T13:12:36;9.70;;;1.77;;
60203;SDS011;46068;52.132;4.618;2023-08-12T13:15:02;11.00;;;2.28;;
60203;SDS011;46068;52.132;4.618;2023-08-12T13:17:28;8.50;;;2.35;;
60203;SDS011;46068;52.132;4.618;2023-08-12T13:19:56;8.82;;;2.20;;
60203;SDS011;46068;52.132;4.618;2023-08-12T13:22:22;8.52;;;2.10;;
60203;SDS011;46068;52.132;4.618;2023-08-12T13:24:49;7.57;;;1.98;;
60203;SDS011;46068;52.132;4.618;2023-08-12T13:27:15;9.60;;;2.00;;
60203;SDS011;46068;52.132;4.618;2023-08-12T13:29:42;10.10;;;2.30;;
60203;SDS011;46068;52.132;4.618;2023-08-12T13:32:08;8.15;;;1.92;;
60203;SDS011;46068;52.132;4.618;2023-08-12T13:34:34;10.27;;;2.35;;
60203;SDS011;46068;52.132;4.618;2023-08-12T13:37:02;9.85;;;2.50;;
60203;SDS011;46068;52.132;4.618;2023-08-12T13:39:28;12.73;;;2.55;;
60203;SDS011;46068;52.132;4.618;2023-08-12T13:41:55;11.32;;;2.58;;
60203;SDS011;46068;52.132;4.618;2023-08-12T13:44:22;9.40;;;2.20;;
60203;SDS011;46068;52.132;4.618;2023-08-12T13:46:49;11.02;;;2.35;;
60203;SDS011;46068;52.132;4.618;2023-08-12T13:49:15;9.25;;;2.03;;
60203;SDS011;46068;52.132;4.618;2023-08-12T13:51:41;13.32;;;2.63;;
60203;SDS011;46068;52.132;4.618;2023-08-12T13:54:09;10.80;;;2.50;;
60203;SDS011;46068;52.132;4.618;2023-08-12T13:56:35;9.48;;;2.28;;
60203;SDS011;46068;52.132;4.618;2023-08-12T13:59:02;11.35;;;2.28;;
60203;SDS011;46068;52.132;4.618;2023-08-12T14:01:28;9.93;;;1.90;;
60203;SDS011;46068;52.132;4.618;2023-08-12T14:03:54;20.40;;;2.63;;
60203;SDS011;46068;52.132;4.618;2023-08-12T14:06:20;13.65;;;3.03;;
60203;SDS011;46068;52.132;4.618;2023-08-12T14:08:47;11.00;;;2.70;;
60203;SDS011;46068;52.132;4.618;2023-08-12T14:11:14;11.70;;;2.22;;
60203;SDS011;46068;52.132;4.618;2023-08-12T14:13:41;9.57;;;2.00;;
60203;SDS011;46068;52.132;4.618;2023-08-12T14:16:07;8.77;;;2.22;;
60203;SDS011;46068;52.132;4.618;2023-08-12T14:18:33;13.48;;;2.20;;
60203;SDS011;46068;52.132;4.618;2023-08-12T14:21:00;14.50;;;2.40;;
60203;SDS011;46068;52.132;4.618;2023-08-12T14:23:26;11.07;;;2.70;;
60203;SDS011;46068;52.132;4.618;2023-08-12T14:25:52;12.73;;;2.72;;
60203;SDS011;46068;52.132;4.618;2023-08-12T14:28:20;10.80;;;2.88;;
60203;SDS011;46068;52.132;4.618;2023-08-12T14:30:46;13.68;;;2.67;;
60203;SDS011;46068;52.132;4.618;2023-08-12T14:33:13;13.38;;;2.28;;
60203;SDS011;46068;52.132;4.618;2023-08-12T14:35:39;10.18;;;2.78;;
60203;SDS011;46068;52.132;4.618;2023-08-12T14:38:05;14.35;;;3.00;;
60203;SDS011;46068;52.132;4.618;2023-08-12T14:40:32;14.25;;;2.78;;